sensor_id;sensor_type;location;lat;lon;timestamp;P1;durP1;ratioP1;P2;durP2;ratioP2
55362;SDS011;41244;49.242;9.060;2023-05-06T00:00:58;12.00;;;8.57;;
55362;SDS011;41244;49.242;9.060;2023-05-06T00:03:24;8.77;;;7.82;;
55362;SDS011;41244;49.242;9.060;2023-05-06T00:05:50;12.48;;;8.25;;
55362;SDS011;41244;49.242;9.060;2023-05-06T00:08:16;9.40;;;8.45;;
55362;SDS011;41244;49.242;9.060;2023-05-06T00:10:42;10.68;;;9.02;;
55362;SDS011;41244;49.242;9.060;2023-05-06T00:13:08;10.70;;;9.52;;
55362;SDS011;41244;49.242;9.060;2023-05-06T00:15:34;9.10;;;8.20;;
55362;SDS011;41244;49.242;9.060;2023-05-06T00:18:01;10.00;;;8.52;;
55362;SDS011;41244;49.242;9.060;2023-05-06T00:20:27;9.20;;;8.30;;
55362;SDS011;41244;49.242;9.060;2023-05-06T00:22:53;11.20;;;8.40;;
55362;SDS011;41244;49.242;9.060;2023-05-06T00:25:19;11.90;;;10.38;;
55362;SDS011;41244;49.242;9.060;2023-05-06T00:27:45;12.32;;;10.20;;
55362;SDS011;41244;49.242;9.060;2023-05-06T00:30:11;10.68;;;9.52;;
55362;SDS011;41244;49.242;9.060;2023-05-06T00:32:37;12.02;;;10.32;;
55362;SDS011;41244;49.242;9.060;2023-05-06T00:35:03;11.50;;;10.40;;
55362;SDS011;41244;49.242;9.060;2023-05-06T00:37:29;11.65;;;9.90;;
55362;SDS011;41244;49.242;9.060;2023-05-06T00:39:55;12.25;;;11.13;;
55362;SDS011;41244;49.242;9.060;2023-05-06T00:42:21;11.63;;;10.45;;
55362;SDS011;41244;49.242;9.060;2023-05-06T00:44:47;11.13;;;9.98;;
55362;SDS011;41244;49.242;9.060;2023-05-06T00:47:14;12.20;;;11.02;;
55362;SDS011;41244;49.242;9.060;2023-05-06T00:49:40;12.05;;;10.77;;
55362;SDS011;41244;49.242;9.060;2023-05-06T00:52:06;16.13;;;11.77;;
55362;SDS011;41244;49.242;9.060;2023-05-06T00:54:32;14.45;;;11.82;;
55362;SDS011;41244;49.242;9.060;2023-05-06T00:56:57;13.57;;;12.25;;
55362;SDS011;41244;49.242;9.060;2023-05-06T00:59:23;12.55;;;11.43;;
55362;SDS011;41244;49.242;9.060;2023-05-06T01:01:49;14.18;;;12.68;;
55362;SDS011;41244;49.242;9.060;2023-05-06T01:04:16;15.15;;;13.38;;
55362;SDS011;41244;49.242;9.060;2023-05-06T01:07:01;17.05;;;14.30;;
55362;SDS011;41244;49.242;9.060;2023-05-06T01:09:58;17.35;;;14.07;;
55362;SDS011;41244;49.242;9.060;2023-05-06T01:12:41;19.40;;;14.00;;
55362;SDS011;41244;49.242;9.060;2023-05-06T01:18:20;14.73;;;13.13;;
55362;SDS011;41244;49.242;9.060;2023-05-06T01:20:48;14.40;;;12.82;;
55362;SDS011;41244;49.242;9.060;2023-05-06T01:23:16;13.95;;;12.48;;
55362;SDS011;41244;49.242;9.060;2023-05-06T01:25:42;16.42;;;14.07;;
55362;SDS011;41244;49.242;9.060;2023-05-06T01:28:08;14.55;;;13.15;;
55362;SDS011;41244;49.242;9.060;2023-05-06T01:36:24;17.83;;;14.65;;
55362;SDS011;41244;49.242;9.060;2023-05-06T01:41:34;18.80;;;13.82;;
55362;SDS011;41244;49.242;9.060;2023-05-06T01:44:05;15.80;;;12.68;;
55362;SDS011;41244;49.242;9.060;2023-05-06T01:46:32;14.88;;;13.27;;
55362;SDS011;41244;49.242;9.060;2023-05-06T01:49:00;16.48;;;13.25;;
55362;SDS011;41244;49.242;9.060;2023-05-06T01:51:31;17.70;;;14.07;;
55362;SDS011;41244;49.242;9.060;2023-05-06T01:53:58;16.98;;;14.55;;
55362;SDS011;41244;49.242;9.060;2023-05-06T01:56:24;13.13;;;11.85;;
55362;SDS011;41244;49.242;9.060;2023-05-06T01:58:51;14.38;;;12.98;;
55362;SDS011;41244;49.242;9.060;2023-05-06T02:01:16;13.43;;;12.23;;
55362;SDS011;41244;49.242;9.060;2023-05-06T02:03:42;13.57;;;12.27;;
55362;SDS011;41244;49.242;9.060;2023-05-06T02:06:08;12.57;;;11.38;;
55362;SDS011;41244;49.242;9.060;2023-05-06T02:08:34;15.25;;;12.45;;
55362;SDS011;41244;49.242;9.060;2023-05-06T02:10:59;13.52;;;12.32;;
55362;SDS011;41244;49.242;9.060;2023-05-06T02:13:25;14.93;;;13.55;;
55362;SDS011;41244;49.242;9.060;2023-05-06T02:15:51;14.27;;;12.80;;
55362;SDS011;41244;49.242;9.060;2023-05-06T02:18:18;16.02;;;13.90;;
55362;SDS011;41244;49.242;9.060;2023-05-06T02:20:44;16.90;;;13.48;;
55362;SDS011;41244;49.242;9.060;2023-05-06T02:23:10;14.70;;;13.20;;
55362;SDS011;41244;49.242;9.060;2023-05-06T02:25:35;21.83;;;14.93;;
55362;SDS011;41244;49.242;9.060;2023-05-06T02:28:01;18.23;;;15.40;;
55362;SDS011;41244;49.242;9.060;2023-05-06T02:30:27;18.45;;;15.40;;
55362;SDS011;41244;49.242;9.060;2023-05-06T02:32:55;18.15;;;14.45;;
55362;SDS011;41244;49.242;9.060;2023-05-06T02:35:21;17.58;;;15.70;;
55362;SDS011;41244;49.242;9.060;2023-05-06T02:37:47;29.85;;;18.25;;
55362;SDS011;41244;49.242;9.060;2023-05-06T02:40:13;25.50;;;16.88;;
55362;SDS011;41244;49.242;9.060;2023-05-06T02:42:39;30.20;;;18.55;;
55362;SDS011;41244;49.242;9.060;2023-05-06T02:45:05;19.60;;;16.15;;
55362;SDS011;41244;49.242;9.060;2023-05-06T02:47:32;33.08;;;17.23;;
55362;SDS011;41244;49.242;9.060;2023-05-06T02:49:58;35.72;;;16.73;;
55362;SDS011;41244;49.242;9.060;2023-05-06T02:52:23;27.25;;;17.25;;
55362;SDS011;41244;49.242;9.060;2023-05-06T02:54:49;26.20;;;16.33;;
55362;SDS011;41244;49.242;9.060;2023-05-06T02:57:15;31.77;;;16.83;;
55362;SDS011;41244;49.242;9.060;2023-05-06T02:59:41;21.48;;;16.40;;
55362;SDS011;41244;49.242;9.060;2023-05-06T03:02:07;21.30;;;15.85;;
55362;SDS011;41244;49.242;9.060;2023-05-06T03:04:32;28.13;;;17.63;;
55362;SDS011;41244;49.242;9.060;2023-05-06T03:06:58;20.13;;;15.25;;
55362;SDS011;41244;49.242;9.060;2023-05-06T03:09:24;21.60;;;16.98;;
55362;SDS011;41244;49.242;9.060;2023-05-06T03:11:50;17.85;;;15.85;;
55362;SDS011;41244;49.242;9.060;2023-05-06T03:14:15;16.70;;;14.80;;
55362;SDS011;41244;49.242;9.060;2023-05-06T03:16:41;21.73;;;16.45;;
55362;SDS011;41244;49.242;9.060;2023-05-06T03:19:07;19.02;;;15.27;;
55362;SDS011;41244;49.242;9.060;2023-05-06T03:21:33;19.55;;;15.68;;
55362;SDS011;41244;49.242;9.060;2023-05-06T03:23:58;15.98;;;14.27;;
55362;SDS011;41244;49.242;9.060;2023-05-06T03:26:24;16.63;;;13.90;;
55362;SDS011;41244;49.242;9.060;2023-05-06T03:28:50;19.25;;;14.52;;
55362;SDS011;41244;49.242;9.060;2023-05-06T03:31:16;16.55;;;14.30;;
55362;SDS011;41244;49.242;9.060;2023-05-06T03:33:42;15.73;;;13.98;;
55362;SDS011;41244;49.242;9.060;2023-05-06T03:36:07;15.93;;;14.23;;
55362;SDS011;41244;49.242;9.060;2023-05-06T03:38:33;15.95;;;14.15;;
55362;SDS011;41244;49.242;9.060;2023-05-06T03:40:59;16.55;;;13.68;;
55362;SDS011;41244;49.242;9.060;2023-05-06T03:43:25;14.95;;;13.32;;
55362;SDS011;41244;49.242;9.060;2023-05-06T03:45:50;16.33;;;14.65;;
55362;SDS011;41244;49.242;9.060;2023-05-06T03:48:16;16.17;;;13.85;;
55362;SDS011;41244;49.242;9.060;2023-05-06T03:50:42;15.98;;;13.07;;
55362;SDS011;41244;49.242;9.060;2023-05-06T03:53:08;14.38;;;12.98;;
55362;SDS011;41244;49.242;9.060;2023-05-06T03:55:34;15.07;;;13.55;;
55362;SDS011;41244;49.242;9.060;2023-05-06T03:58:00;15.70;;;14.15;;
55362;SDS011;41244;49.242;9.060;2023-05-06T04:00:25;14.02;;;12.48;;
55362;SDS011;41244;49.242;9.060;2023-05-06T04:02:51;14.50;;;13.10;;
55362;SDS011;41244;49.242;9.060;2023-05-06T04:05:17;16.08;;;13.20;;
55362;SDS011;41244;49.242;9.060;2023-05-06T04:07:43;14.45;;;12.77;;
55362;SDS011;41244;49.242;9.060;2023-05-06T04:10:09;13.68;;;12.00;;
55362;SDS011;41244;49.242;9.060;2023-05-06T04:12:35;14.65;;;12.82;;
55362;SDS011;41244;49.242;9.060;2023-05-06T04:15:01;15.02;;;12.93;;
55362;SDS011;41244;49.242;9.060;2023-05-06T04:17:26;15.32;;;13.48;;
55362;SDS011;41244;49.242;9.060;2023-05-06T04:19:52;13.82;;;12.43;;
55362;SDS011;41244;49.242;9.060;2023-05-06T04:22:18;15.90;;;13.27;;
55362;SDS011;41244;49.242;9.060;2023-05-06T04:24:44;15.32;;;12.85;;
55362;SDS011;41244;49.242;9.060;2023-05-06T04:27:10;14.27;;;12.90;;
55362;SDS011;41244;49.242;9.060;2023-05-06T04:29:36;14.45;;;12.35;;
55362;SDS011;41244;49.242;9.060;2023-05-06T04:32:02;12.90;;;11.57;;
55362;SDS011;41244;49.242;9.060;2023-05-06T04:34:29;15.43;;;13.05;;
55362;SDS011;41244;49.242;9.060;2023-05-06T04:36:55;12.65;;;11.35;;
55362;SDS011;41244;49.242;9.060;2023-05-06T04:39:22;14.70;;;12.02;;
55362;SDS011;41244;49.242;9.060;2023-05-06T04:41:48;14.98;;;13.32;;
55362;SDS011;41244;49.242;9.060;2023-05-06T04:44:14;14.65;;;13.00;;
55362;SDS011;41244;49.242;9.060;2023-05-06T04:46:40;13.35;;;12.13;;
55362;SDS011;41244;49.242;9.060;2023-05-06T04:49:06;12.88;;;11.57;;
55362;SDS011;41244;49.242;9.060;2023-05-06T04:51:32;13.65;;;12.25;;
55362;SDS011;41244;49.242;9.060;2023-05-06T04:53:57;13.98;;;12.57;;
55362;SDS011;41244;49.242;9.060;2023-05-06T04:56:23;13.82;;;12.52;;
55362;SDS011;41244;49.242;9.060;2023-05-06T04:58:50;17.67;;;15.38;;
55362;SDS011;41244;49.242;9.060;2023-05-06T05:01:15;14.25;;;12.75;;
55362;SDS011;41244;49.242;9.060;2023-05-06T05:03:43;15.50;;;13.85;;
55362;SDS011;41244;49.242;9.060;2023-05-06T05:06:09;19.13;;;13.85;;
55362;SDS011;41244;49.242;9.060;2023-05-06T05:08:37;18.10;;;15.55;;
55362;SDS011;41244;49.242;9.060;2023-05-06T05:11:06;19.73;;;14.63;;
55362;SDS011;41244;49.242;9.060;2023-05-06T05:13:32;21.73;;;17.08;;
55362;SDS011;41244;49.242;9.060;2023-05-06T05:15:58;18.25;;;14.80;;
55362;SDS011;41244;49.242;9.060;2023-05-06T05:18:24;23.73;;;16.35;;
55362;SDS011;41244;49.242;9.060;2023-05-06T05:20:53;21.10;;;17.58;;
55362;SDS011;41244;49.242;9.060;2023-05-06T05:23:18;17.23;;;15.32;;
55362;SDS011;41244;49.242;9.060;2023-05-06T05:25:44;18.73;;;16.05;;
55362;SDS011;41244;49.242;9.060;2023-05-06T05:28:10;22.55;;;15.63;;
55362;SDS011;41244;49.242;9.060;2023-05-06T05:30:36;17.25;;;15.45;;
55362;SDS011;41244;49.242;9.060;2023-05-06T05:33:01;17.88;;;15.98;;
55362;SDS011;41244;49.242;9.060;2023-05-06T05:35:27;17.48;;;15.60;;
55362;SDS011;41244;49.242;9.060;2023-05-06T05:37:53;17.42;;;15.57;;
55362;SDS011;41244;49.242;9.060;2023-05-06T05:40:19;17.58;;;15.85;;
55362;SDS011;41244;49.242;9.060;2023-05-06T05:42:45;19.15;;;15.60;;
55362;SDS011;41244;49.242;9.060;2023-05-06T05:45:10;17.17;;;15.43;;
55362;SDS011;41244;49.242;9.060;2023-05-06T05:47:36;17.08;;;15.35;;
55362;SDS011;41244;49.242;9.060;2023-05-06T05:50:02;18.40;;;16.50;;
55362;SDS011;41244;49.242;9.060;2023-05-06T05:52:28;17.88;;;15.25;;
55362;SDS011;41244;49.242;9.060;2023-05-06T05:54:54;17.10;;;14.80;;
55362;SDS011;41244;49.242;9.060;2023-05-06T05:57:20;18.52;;;15.77;;
55362;SDS011;41244;49.242;9.060;2023-05-06T05:59:45;16.77;;;15.02;;
55362;SDS011;41244;49.242;9.060;2023-05-06T06:02:11;17.13;;;15.27;;
55362;SDS011;41244;49.242;9.060;2023-05-06T06:04:37;17.42;;;15.73;;
55362;SDS011;41244;49.242;9.060;2023-05-06T06:07:03;16.90;;;15.10;;
55362;SDS011;41244;49.242;9.060;2023-05-06T06:09:29;17.55;;;15.90;;
55362;SDS011;41244;49.242;9.060;2023-05-06T06:11:55;18.55;;;15.77;;
55362;SDS011;41244;49.242;9.060;2023-05-06T06:14:21;18.17;;;15.25;;
55362;SDS011;41244;49.242;9.060;2023-05-06T06:16:47;17.02;;;15.20;;
55362;SDS011;41244;49.242;9.060;2023-05-06T06:19:13;17.63;;;15.82;;
55362;SDS011;41244;49.242;9.060;2023-05-06T06:21:39;17.35;;;15.55;;
55362;SDS011;41244;49.242;9.060;2023-05-06T06:24:05;17.08;;;15.02;;
55362;SDS011;41244;49.242;9.060;2023-05-06T06:26:31;17.00;;;15.20;;
55362;SDS011;41244;49.242;9.060;2023-05-06T06:28:57;17.02;;;15.32;;
55362;SDS011;41244;49.242;9.060;2023-05-06T06:31:22;16.35;;;14.70;;
55362;SDS011;41244;49.242;9.060;2023-05-06T06:33:48;15.98;;;14.32;;
55362;SDS011;41244;49.242;9.060;2023-05-06T06:36:14;17.92;;;14.18;;
55362;SDS011;41244;49.242;9.060;2023-05-06T06:38:40;16.00;;;13.90;;
55362;SDS011;41244;49.242;9.060;2023-05-06T06:41:06;15.75;;;14.15;;
55362;SDS011;41244;49.242;9.060;2023-05-06T06:43:31;15.45;;;13.88;;
55362;SDS011;41244;49.242;9.060;2023-05-06T06:45:57;16.17;;;14.50;;
55362;SDS011;41244;49.242;9.060;2023-05-06T06:48:23;15.93;;;14.25;;
55362;SDS011;41244;49.242;9.060;2023-05-06T06:50:49;15.80;;;14.10;;
55362;SDS011;41244;49.242;9.060;2023-05-06T06:53:15;14.13;;;12.60;;
55362;SDS011;41244;49.242;9.060;2023-05-06T06:55:44;14.32;;;13.00;;
55362;SDS011;41244;49.242;9.060;2023-05-06T06:58:10;15.38;;;13.35;;
55362;SDS011;41244;49.242;9.060;2023-05-06T07:00:36;14.35;;;12.82;;
55362;SDS011;41244;49.242;9.060;2023-05-06T07:03:02;14.63;;;13.20;;
55362;SDS011;41244;49.242;9.060;2023-05-06T07:05:27;15.13;;;13.63;;
55362;SDS011;41244;49.242;9.060;2023-05-06T07:07:53;14.13;;;12.70;;
55362;SDS011;41244;49.242;9.060;2023-05-06T07:10:19;14.15;;;12.75;;
55362;SDS011;41244;49.242;9.060;2023-05-06T07:12:46;14.15;;;12.70;;
55362;SDS011;41244;49.242;9.060;2023-05-06T07:15:12;15.98;;;14.18;;
55362;SDS011;41244;49.242;9.060;2023-05-06T07:17:37;18.02;;;15.48;;
55362;SDS011;41244;49.242;9.060;2023-05-06T07:20:03;14.88;;;13.38;;
55362;SDS011;41244;49.242;9.060;2023-05-06T07:22:30;15.88;;;13.30;;
55362;SDS011;41244;49.242;9.060;2023-05-06T07:24:56;13.85;;;12.45;;
55362;SDS011;41244;49.242;9.060;2023-05-06T07:27:21;14.52;;;13.00;;
55362;SDS011;41244;49.242;9.060;2023-05-06T07:29:48;13.63;;;11.93;;
55362;SDS011;41244;49.242;9.060;2023-05-06T07:32:14;13.77;;;12.38;;
55362;SDS011;41244;49.242;9.060;2023-05-06T07:34:40;14.00;;;12.57;;
55362;SDS011;41244;49.242;9.060;2023-05-06T07:37:06;15.75;;;12.35;;
55362;SDS011;41244;49.242;9.060;2023-05-06T07:39:32;13.70;;;11.75;;
55362;SDS011;41244;49.242;9.060;2023-05-06T07:41:58;15.40;;;12.27;;
55362;SDS011;41244;49.242;9.060;2023-05-06T07:44:25;14.90;;;12.38;;
55362;SDS011;41244;49.242;9.060;2023-05-06T07:46:51;15.55;;;12.98;;
55362;SDS011;41244;49.242;9.060;2023-05-06T07:49:17;13.27;;;11.88;;
55362;SDS011;41244;49.242;9.060;2023-05-06T07:51:42;13.48;;;12.18;;
55362;SDS011;41244;49.242;9.060;2023-05-06T07:54:09;13.30;;;12.00;;
55362;SDS011;41244;49.242;9.060;2023-05-06T07:56:35;13.68;;;11.45;;
55362;SDS011;41244;49.242;9.060;2023-05-06T07:59:01;11.10;;;10.02;;
55362;SDS011;41244;49.242;9.060;2023-05-06T08:01:26;11.73;;;10.60;;
55362;SDS011;41244;49.242;9.060;2023-05-06T08:03:53;10.98;;;9.88;;
55362;SDS011;41244;49.242;9.060;2023-05-06T08:06:19;10.70;;;9.60;;
55362;SDS011;41244;49.242;9.060;2023-05-06T08:08:45;10.90;;;9.60;;
55362;SDS011;41244;49.242;9.060;2023-05-06T08:11:11;10.05;;;9.07;;
55362;SDS011;41244;49.242;9.060;2023-05-06T08:13:37;9.05;;;8.20;;
55362;SDS011;41244;49.242;9.060;2023-05-06T08:16:03;9.75;;;8.73;;
55362;SDS011;41244;49.242;9.060;2023-05-06T08:18:30;9.52;;;8.63;;
55362;SDS011;41244;49.242;9.060;2023-05-06T08:20:57;8.77;;;7.85;;
55362;SDS011;41244;49.242;9.060;2023-05-06T08:23:22;8.70;;;7.82;;
55362;SDS011;41244;49.242;9.060;2023-05-06T08:25:48;9.30;;;8.23;;
55362;SDS011;41244;49.242;9.060;2023-05-06T08:28:14;9.45;;;8.32;;
55362;SDS011;41244;49.242;9.060;2023-05-06T08:30:40;8.35;;;7.65;;
55362;SDS011;41244;49.242;9.060;2023-05-06T08:33:05;8.90;;;7.10;;
55362;SDS011;41244;49.242;9.060;2023-05-06T08:35:31;6.93;;;6.32;;
55362;SDS011;41244;49.242;9.060;2023-05-06T08:37:57;7.50;;;6.80;;
55362;SDS011;41244;49.242;9.060;2023-05-06T08:40:23;10.77;;;7.00;;
55362;SDS011;41244;49.242;9.060;2023-05-06T08:42:51;9.32;;;7.28;;
55362;SDS011;41244;49.242;9.060;2023-05-06T08:45:19;7.03;;;6.40;;
55362;SDS011;41244;49.242;9.060;2023-05-06T08:47:45;8.75;;;6.63;;
55362;SDS011;41244;49.242;9.060;2023-05-06T08:50:11;6.82;;;5.95;;
55362;SDS011;41244;49.242;9.060;2023-05-06T08:52:37;6.85;;;6.15;;
55362;SDS011;41244;49.242;9.060;2023-05-06T08:55:04;7.38;;;5.70;;
55362;SDS011;41244;49.242;9.060;2023-05-06T08:57:31;6.45;;;5.82;;
55362;SDS011;41244;49.242;9.060;2023-05-06T08:59:58;6.22;;;5.55;;
55362;SDS011;41244;49.242;9.060;2023-05-06T09:02:24;7.47;;;6.25;;
55362;SDS011;41244;49.242;9.060;2023-05-06T09:04:50;7.72;;;6.00;;
55362;SDS011;41244;49.242;9.060;2023-05-06T09:07:19;6.60;;;6.00;;
55362;SDS011;41244;49.242;9.060;2023-05-06T09:09:45;7.00;;;5.72;;
55362;SDS011;41244;49.242;9.060;2023-05-06T09:12:12;7.68;;;5.63;;
55362;SDS011;41244;49.242;9.060;2023-05-06T09:14:39;5.70;;;5.18;;
55362;SDS011;41244;49.242;9.060;2023-05-06T09:17:05;6.18;;;5.45;;
55362;SDS011;41244;49.242;9.060;2023-05-06T09:19:50;5.28;;;4.60;;
55362;SDS011;41244;49.242;9.060;2023-05-06T09:22:17;5.07;;;4.57;;
55362;SDS011;41244;49.242;9.060;2023-05-06T09:24:47;5.10;;;4.60;;
55362;SDS011;41244;49.242;9.060;2023-05-06T09:27:21;5.00;;;4.50;;
55362;SDS011;41244;49.242;9.060;2023-05-06T09:30:08;8.10;;;3.92;;
55362;SDS011;41244;49.242;9.060;2023-05-06T09:32:36;6.00;;;4.10;;
55362;SDS011;41244;49.242;9.060;2023-05-06T09:35:02;6.82;;;4.10;;
55362;SDS011;41244;49.242;9.060;2023-05-06T09:37:28;4.90;;;4.50;;
55362;SDS011;41244;49.242;9.060;2023-05-06T09:39:54;5.55;;;4.43;;
55362;SDS011;41244;49.242;9.060;2023-05-06T09:42:23;7.70;;;4.30;;
55362;SDS011;41244;49.242;9.060;2023-05-06T09:44:58;10.70;;;4.15;;
55362;SDS011;41244;49.242;9.060;2023-05-06T09:47:25;3.50;;;2.90;;
55362;SDS011;41244;49.242;9.060;2023-05-06T09:49:58;4.78;;;2.92;;
55362;SDS011;41244;49.242;9.060;2023-05-06T09:52:26;2.92;;;2.70;;
55362;SDS011;41244;49.242;9.060;2023-05-06T09:54:52;3.38;;;2.67;;
55362;SDS011;41244;49.242;9.060;2023-05-06T09:57:19;4.35;;;2.40;;
55362;SDS011;41244;49.242;9.060;2023-05-06T09:59:49;2.95;;;2.70;;
55362;SDS011;41244;49.242;9.060;2023-05-06T10:02:18;3.25;;;2.58;;
55362;SDS011;41244;49.242;9.060;2023-05-06T10:04:44;4.03;;;2.70;;
55362;SDS011;41244;49.242;9.060;2023-05-06T10:07:10;3.50;;;3.20;;
55362;SDS011;41244;49.242;9.060;2023-05-06T10:09:39;4.90;;;2.97;;
55362;SDS011;41244;49.242;9.060;2023-05-06T10:12:06;3.10;;;2.80;;
55362;SDS011;41244;49.242;9.060;2023-05-06T10:14:34;7.05;;;5.45;;
55362;SDS011;41244;49.242;9.060;2023-05-06T10:17:07;10.73;;;7.50;;
55362;SDS011;41244;49.242;9.060;2023-05-06T10:19:34;5.65;;;4.10;;
55362;SDS011;41244;49.242;9.060;2023-05-06T10:25:03;5.55;;;2.95;;
55362;SDS011;41244;49.242;9.060;2023-05-06T10:27:47;6.32;;;3.10;;
55362;SDS011;41244;49.242;9.060;2023-05-06T10:30:13;4.85;;;3.22;;
55362;SDS011;41244;49.242;9.060;2023-05-06T10:32:43;3.58;;;2.90;;
55362;SDS011;41244;49.242;9.060;2023-05-06T10:35:16;2.97;;;2.63;;
55362;SDS011;41244;49.242;9.060;2023-05-06T10:38:05;2.75;;;2.55;;
55362;SDS011;41244;49.242;9.060;2023-05-06T10:40:47;5.53;;;2.88;;
55362;SDS011;41244;49.242;9.060;2023-05-06T10:43:21;3.20;;;2.83;;
55362;SDS011;41244;49.242;9.060;2023-05-06T10:51:35;5.97;;;3.15;;
55362;SDS011;41244;49.242;9.060;2023-05-06T10:59:24;4.07;;;2.40;;
55362;SDS011;41244;49.242;9.060;2023-05-06T11:01:54;4.65;;;2.30;;
55362;SDS011;41244;49.242;9.060;2023-05-06T11:04:42;2.80;;;2.40;;
55362;SDS011;41244;49.242;9.060;2023-05-06T11:07:23;5.13;;;3.33;;
55362;SDS011;41244;49.242;9.060;2023-05-06T11:12:45;4.90;;;2.50;;
55362;SDS011;41244;49.242;9.060;2023-05-06T11:15:25;2.70;;;2.30;;
55362;SDS011;41244;49.242;9.060;2023-05-06T11:18:39;3.30;;;2.40;;
55362;SDS011;41244;49.242;9.060;2023-05-06T11:24:12;2.50;;;2.30;;
55362;SDS011;41244;49.242;9.060;2023-05-06T11:26:18;2.88;;;2.40;;
55362;SDS011;41244;49.242;9.060;2023-05-06T11:28:45;4.30;;;3.58;;
55362;SDS011;41244;49.242;9.060;2023-05-06T11:31:15;4.25;;;2.50;;
55362;SDS011;41244;49.242;9.060;2023-05-06T11:33:48;2.42;;;2.22;;
55362;SDS011;41244;49.242;9.060;2023-05-06T11:36:18;2.90;;;2.20;;
55362;SDS011;41244;49.242;9.060;2023-05-06T11:38:46;2.45;;;2.25;;
55362;SDS011;41244;49.242;9.060;2023-05-06T11:41:20;2.30;;;2.10;;
55362;SDS011;41244;49.242;9.060;2023-05-06T11:43:47;3.88;;;2.20;;
55362;SDS011;41244;49.242;9.060;2023-05-06T11:46:14;2.63;;;2.22;;
55362;SDS011;41244;49.242;9.060;2023-05-06T11:48:44;2.55;;;2.22;;
55362;SDS011;41244;49.242;9.060;2023-05-06T11:51:10;2.28;;;2.10;;
55362;SDS011;41244;49.242;9.060;2023-05-06T11:53:35;2.90;;;2.05;;
55362;SDS011;41244;49.242;9.060;2023-05-06T11:56:02;2.25;;;2.05;;
55362;SDS011;41244;49.242;9.060;2023-05-06T11:58:30;4.10;;;2.20;;
55362;SDS011;41244;49.242;9.060;2023-05-06T12:00:58;3.10;;;2.17;;
55362;SDS011;41244;49.242;9.060;2023-05-06T12:03:25;2.42;;;2.10;;
55362;SDS011;41244;49.242;9.060;2023-05-06T12:05:53;2.65;;;2.30;;
55362;SDS011;41244;49.242;9.060;2023-05-06T12:08:20;2.88;;;2.03;;
55362;SDS011;41244;49.242;9.060;2023-05-06T12:11:07;4.25;;;3.53;;
55362;SDS011;41244;49.242;9.060;2023-05-06T12:13:33;2.45;;;2.25;;
55362;SDS011;41244;49.242;9.060;2023-05-06T12:16:00;2.25;;;2.05;;
55362;SDS011;41244;49.242;9.060;2023-05-06T12:18:27;3.15;;;2.30;;
55362;SDS011;41244;49.242;9.060;2023-05-06T12:20:53;3.33;;;2.40;;
55362;SDS011;41244;49.242;9.060;2023-05-06T12:23:20;2.40;;;2.20;;
55362;SDS011;41244;49.242;9.060;2023-05-06T12:25:57;2.40;;;2.20;;
55362;SDS011;41244;49.242;9.060;2023-05-06T12:28:34;2.40;;;1.92;;
55362;SDS011;41244;49.242;9.060;2023-05-06T12:31:22;2.22;;;1.90;;
55362;SDS011;41244;49.242;9.060;2023-05-06T12:33:47;2.35;;;2.08;;
55362;SDS011;41244;49.242;9.060;2023-05-06T12:36:13;2.10;;;2.00;;
55362;SDS011;41244;49.242;9.060;2023-05-06T12:38:49;3.05;;;2.50;;
55362;SDS011;41244;49.242;9.060;2023-05-06T12:41:23;2.58;;;1.95;;
55362;SDS011;41244;49.242;9.060;2023-05-06T12:43:59;3.15;;;2.33;;
55362;SDS011;41244;49.242;9.060;2023-05-06T12:46:25;2.45;;;2.25;;
55362;SDS011;41244;49.242;9.060;2023-05-06T12:49:00;2.38;;;2.17;;
55362;SDS011;41244;49.242;9.060;2023-05-06T12:51:27;4.32;;;2.75;;
55362;SDS011;41244;49.242;9.060;2023-05-06T12:53:55;3.90;;;2.03;;
55362;SDS011;41244;49.242;9.060;2023-05-06T12:56:21;3.22;;;2.20;;
55362;SDS011;41244;49.242;9.060;2023-05-06T12:58:56;2.30;;;2.10;;
55362;SDS011;41244;49.242;9.060;2023-05-06T13:01:24;3.17;;;2.20;;
55362;SDS011;41244;49.242;9.060;2023-05-06T13:03:49;2.25;;;2.00;;
55362;SDS011;41244;49.242;9.060;2023-05-06T13:06:16;2.90;;;2.00;;
55362;SDS011;41244;49.242;9.060;2023-05-06T13:08:42;2.75;;;2.08;;
55362;SDS011;41244;49.242;9.060;2023-05-06T13:11:07;3.08;;;2.10;;
55362;SDS011;41244;49.242;9.060;2023-05-06T13:13:33;2.72;;;2.42;;
55362;SDS011;41244;49.242;9.060;2023-05-06T13:15:59;3.38;;;2.35;;
55362;SDS011;41244;49.242;9.060;2023-05-06T13:18:25;6.95;;;2.38;;
55362;SDS011;41244;49.242;9.060;2023-05-06T13:20:51;7.63;;;6.40;;
55362;SDS011;41244;49.242;9.060;2023-05-06T13:23:16;2.90;;;2.67;;
55362;SDS011;41244;49.242;9.060;2023-05-06T13:25:43;2.17;;;1.98;;
55362;SDS011;41244;49.242;9.060;2023-05-06T13:28:09;3.08;;;2.28;;
55362;SDS011;41244;49.242;9.060;2023-05-06T13:30:34;3.10;;;2.30;;
55362;SDS011;41244;49.242;9.060;2023-05-06T13:33:00;2.15;;;2.00;;
55362;SDS011;41244;49.242;9.060;2023-05-06T13:35:26;2.42;;;1.95;;
55362;SDS011;41244;49.242;9.060;2023-05-06T13:37:52;2.40;;;2.20;;
55362;SDS011;41244;49.242;9.060;2023-05-06T13:40:18;2.22;;;2.10;;
55362;SDS011;41244;49.242;9.060;2023-05-06T13:42:43;2.25;;;1.92;;
55362;SDS011;41244;49.242;9.060;2023-05-06T13:45:09;5.68;;;2.10;;
55362;SDS011;41244;49.242;9.060;2023-05-06T13:47:35;2.60;;;2.20;;
55362;SDS011;41244;49.242;9.060;2023-05-06T13:50:01;2.45;;;2.22;;
55362;SDS011;41244;49.242;9.060;2023-05-06T13:52:27;2.35;;;2.13;;
55362;SDS011;41244;49.242;9.060;2023-05-06T13:54:53;2.83;;;2.20;;
55362;SDS011;41244;49.242;9.060;2023-05-06T13:57:20;1.98;;;1.88;;
55362;SDS011;41244;49.242;9.060;2023-05-06T13:59:48;2.92;;;2.25;;
55362;SDS011;41244;49.242;9.060;2023-05-06T14:02:14;2.38;;;2.00;;
55362;SDS011;41244;49.242;9.060;2023-05-06T14:04:40;2.30;;;2.10;;
55362;SDS011;41244;49.242;9.060;2023-05-06T14:07:06;2.38;;;2.10;;
55362;SDS011;41244;49.242;9.060;2023-05-06T14:09:32;4.97;;;4.57;;
55362;SDS011;41244;49.242;9.060;2023-05-06T14:11:57;2.55;;;2.30;;
55362;SDS011;41244;49.242;9.060;2023-05-06T14:14:23;4.60;;;2.00;;
55362;SDS011;41244;49.242;9.060;2023-05-06T14:16:49;2.33;;;2.15;;
55362;SDS011;41244;49.242;9.060;2023-05-06T14:19:18;2.33;;;2.13;;
55362;SDS011;41244;49.242;9.060;2023-05-06T14:21:44;2.33;;;2.15;;
55362;SDS011;41244;49.242;9.060;2023-05-06T14:24:10;2.60;;;2.22;;
55362;SDS011;41244;49.242;9.060;2023-05-06T14:26:36;3.58;;;2.15;;
55362;SDS011;41244;49.242;9.060;2023-05-06T14:29:02;2.42;;;2.22;;
55362;SDS011;41244;49.242;9.060;2023-05-06T14:31:28;3.05;;;2.75;;
55362;SDS011;41244;49.242;9.060;2023-05-06T14:33:54;2.38;;;2.17;;
55362;SDS011;41244;49.242;9.060;2023-05-06T14:36:20;2.33;;;2.08;;
55362;SDS011;41244;49.242;9.060;2023-05-06T14:38:46;3.25;;;2.30;;
55362;SDS011;41244;49.242;9.060;2023-05-06T14:41:12;2.08;;;1.95;;
55362;SDS011;41244;49.242;9.060;2023-05-06T14:43:38;3.42;;;2.10;;
55362;SDS011;41244;49.242;9.060;2023-05-06T14:46:03;3.70;;;2.20;;
55362;SDS011;41244;49.242;9.060;2023-05-06T14:48:29;2.50;;;1.98;;
55362;SDS011;41244;49.242;9.060;2023-05-06T14:50:55;2.47;;;2.20;;
55362;SDS011;41244;49.242;9.060;2023-05-06T14:53:21;2.22;;;2.03;;
55362;SDS011;41244;49.242;9.060;2023-05-06T14:55:47;2.20;;;2.00;;
55362;SDS011;41244;49.242;9.060;2023-05-06T14:58:13;5.03;;;2.20;;
55362;SDS011;41244;49.242;9.060;2023-05-06T15:00:39;2.95;;;2.22;;
55362;SDS011;41244;49.242;9.060;2023-05-06T15:03:04;2.85;;;1.90;;
55362;SDS011;41244;49.242;9.060;2023-05-06T15:05:30;2.20;;;2.00;;